Time;durP1;ratioP1;P1;durP2;ratioP2;P2;SDS_P1;SDS_P2;PMS_P1;PMS_P2;Temp;Humidity;BMP_temperature;BMP_pressure;BME280_temperature;BME280_humidity;BME280_pressure;Samples;Min_cycle;Max_cycle;Signal;HPM_P1;HPM_P2
2023/09/03 00:00:46;;;;;;;73.05;35.17;;;;;;;17.57;100.00;102485.25;5204480;28;20021;-72
2023/09/03 00:03:17;;;;;;;78.43;36.05;;;;;;;17.57;100.00;102474.41;5204163;28;20112;-72
2023/09/03 00:05:50;;;;;;;80.07;36.78;;;;;;;17.56;100.00;102469.13;5193320;28;20127;-73
2023/09/03 00:08:21;;;;;;;69.05;34.55;;;;;;;17.52;100.00;102474.06;5204145;28;20030;-73
2023/09/03 00:10:53;;;;;;;72.57;35.40;;;;;;;17.52;100.00;102468.63;5202127;28;20064;-72
2023/09/03 00:13:23;;;;;;;70.63;34.75;;;;;;;17.50;100.00;102470.66;5203947;28;20108;-72
2023/09/03 00:15:54;;;;;;;75.07;34.78;;;;;;;17.46;100.00;102465.75;5203535;28;20039;-73
2023/09/03 00:18:24;;;;;;;72.90;35.08;;;;;;;17.44;100.00;102475.94;5202818;28;20069;-73
2023/09/03 00:20:57;;;;;;;74.00;33.63;;;;;;;17.40;100.00;102474.56;5204632;28;20132;-73
2023/09/03 00:23:28;;;;;;;73.95;36.47;;;;;;;17.33;100.00;102467.13;5203942;28;20034;-72
2023/09/03 00:25:59;;;;;;;78.25;37.05;;;;;;;17.32;100.00;102472.75;5203223;28;20378;-73
2023/09/03 00:28:30;;;;;;;70.88;35.72;;;;;;;17.32;100.00;102475.44;5204159;28;20436;-71
2023/09/03 00:31:08;;;;;;;69.80;34.00;;;;;;;17.31;100.00;102468.31;5204652;28;20029;-72
2023/09/03 00:33:39;;;;;;;75.65;35.80;;;;;;;17.29;100.00;102467.66;5204785;28;20025;-72
2023/09/03 00:36:10;;;;;;;72.18;36.17;;;;;;;17.27;100.00;102473.25;5204985;28;20075;-72
2023/09/03 00:38:40;;;;;;;76.55;35.97;;;;;;;17.26;100.00;102476.13;5207274;28;20026;-72
2023/09/03 00:41:10;;;;;;;71.80;35.70;;;;;;;17.24;100.00;102481.72;5207138;28;20090;-71
2023/09/03 00:43:41;;;;;;;73.78;36.13;;;;;;;17.20;100.00;102491.22;5205320;28;20025;-72
2023/09/03 00:46:12;;;;;;;67.00;34.38;;;;;;;17.19;100.00;102485.97;5204089;28;20076;-72
2023/09/03 00:48:43;;;;;;;66.90;31.67;;;;;;;17.13;100.00;102490.19;5207624;28;20022;-72
2023/09/03 00:51:13;;;;;;;64.75;31.80;;;;;;;17.07;100.00;102488.19;5204353;28;20398;-72
2023/09/03 00:53:47;;;;;;;65.07;32.92;;;;;;;17.04;100.00;102491.22;5204129;28;20025;-72
2023/09/03 00:56:18;;;;;;;62.55;30.42;;;;;;;16.98;100.00;102486.47;5203191;28;20029;-72
2023/09/03 00:58:49;;;;;;;61.03;28.85;;;;;;;16.93;100.00;102492.41;5190603;28;20025;-72
2023/09/03 01:01:21;;;;;;;55.03;28.38;;;;;;;16.91;100.00;102491.69;5203494;28;20025;-72
2023/09/03 01:03:51;;;;;;;63.08;29.88;;;;;;;16.84;100.00;102485.28;5203800;28;20029;-72
2023/09/03 01:06:24;;;;;;;55.25;26.85;;;;;;;16.80;100.00;102498.31;5192557;28;20033;-72
2023/09/03 01:08:54;;;;;;;63.55;29.13;;;;;;;16.78;100.00;102502.22;5202650;28;20029;-71
2023/09/03 01:11:48;;;;;;;64.28;31.10;;;;;;;16.76;100.00;102512.34;5203471;28;20033;-72
2023/09/03 01:14:44;;;;;;;77.03;35.33;;;;;;;16.74;100.00;102517.94;5203261;28;20032;-72
2023/09/03 01:17:29;;;;;;;71.80;33.33;;;;;;;16.71;100.00;102526.41;5202582;28;20304;-72
2023/09/03 01:20:18;;;;;;;84.30;36.97;;;;;;;16.71;100.00;102529.09;5201698;28;20056;-72
2023/09/03 01:23:08;;;;;;;88.93;36.60;;;;;;;16.74;100.00;102530.66;5203383;28;20051;-71
2023/09/03 01:26:08;;;;;;;81.60;37.28;;;;;;;16.77;100.00;102533.03;5202874;28;20021;-72
2023/09/03 01:28:40;;;;;;;80.57;38.25;;;;;;;16.77;100.00;102533.03;5184928;28;20395;-72
2023/09/03 01:31:15;;;;;;;78.55;37.63;;;;;;;16.77;100.00;102530.31;5183783;28;20066;-71
2023/09/03 01:33:47;;;;;;;;;;;;;;;16.79;100.00;102526.41;5190652;28;20036;-72
2023/09/03 01:36:19;;;;;;;83.68;37.03;;;;;;;16.76;100.00;102525.91;5189171;28;19909;-72
2023/09/03 01:38:49;;;;;;;86.75;39.22;;;;;;;16.73;100.00;102529.81;5183414;28;20021;-72
2023/09/03 01:41:20;;;;;;;83.88;36.28;;;;;;;16.76;100.00;102536.75;5184696;28;20033;-72
2023/09/03 01:43:50;;;;;;;95.40;39.95;;;;;;;16.75;100.00;102535.91;5183038;28;20022;-72
2023/09/03 01:46:31;;;;;;;82.93;38.03;;;;;;;16.75;100.00;102541.31;5196085;28;20120;-72
2023/09/03 01:49:05;;;;;;;78.25;37.40;;;;;;;16.70;100.00;102534.66;5183266;28;20161;-72
2023/09/03 01:51:43;;;;;;;81.43;36.72;;;;;;;16.67;100.00;102529.59;5189019;28;20033;-72
2023/09/03 01:54:29;;;;;;;83.05;36.85;;;;;;;16.64;100.00;102510.94;5200306;28;20029;-72
2023/09/03 01:57:07;;;;;;;70.05;34.08;;;;;;;16.61;100.00;102516.69;5182948;28;20014;-71
2023/09/03 01:59:49;;;;;;;83.13;37.25;;;;;;;16.60;100.00;102512.28;5202156;28;20026;-72
2023/09/03 02:02:21;;;;;;;81.38;36.50;;;;;;;16.56;100.00;102498.22;5202811;28;20051;-71
2023/09/03 02:04:51;;;;;;;77.55;34.85;;;;;;;16.52;100.00;102511.28;5202477;28;20069;-71
2023/09/03 02:07:22;;;;;;;85.00;37.10;;;;;;;16.50;100.00;102505.16;5201799;28;20057;-72
2023/09/03 02:09:53;;;;;;;85.10;37.80;;;;;;;16.49;100.00;102511.59;5202392;28;20505;-72
2023/09/03 02:12:24;;;;;;;77.15;37.00;;;;;;;16.49;100.00;102508.03;5202066;28;20079;-72
2023/09/03 02:14:55;;;;;;;64.80;29.15;;;;;;;16.47;100.00;102510.91;5202286;28;20378;-72
2023/09/03 02:17:26;;;;;;;75.60;36.20;;;;;;;16.45;100.00;102518.34;5202227;28;20022;-72
2023/09/03 02:19:57;;;;;;;66.88;33.40;;;;;;;16.42;100.00;102523.25;5202413;28;20022;-72
2023/09/03 02:22:28;;;;;;;67.43;31.73;;;;;;;16.41;100.00;102525.09;5202281;28;20083;-71
2023/09/03 02:24:58;;;;;;;69.78;31.95;;;;;;;16.39;100.00;102520.88;5202050;28;20021;-71
2023/09/03 02:27:29;;;;;;;65.15;31.13;;;;;;;16.35;100.00;102525.75;5201670;28;20025;-72
2023/09/03 02:29:59;;;;;;;73.90;36.50;;;;;;;16.30;100.00;102523.53;5202064;28;20108;-71
2023/09/03 02:32:30;;;;;;;61.40;30.58;;;;;;;16.28;100.00;102532.84;5202198;28;20029;-72
2023/09/03 02:35:00;;;;;;;63.65;29.92;;;;;;;16.23;100.00;102532.50;5201622;28;20073;-71
2023/09/03 02:37:31;;;;;;;64.18;30.95;;;;;;;16.15;100.00;102530.56;5201276;28;20034;-71
2023/09/03 02:40:02;;;;;;;59.80;31.02;;;;;;;16.10;100.00;102530.22;5201896;28;20491;-71
2023/09/03 02:42:32;;;;;;;63.03;30.90;;;;;;;16.05;100.00;102527.13;5202411;28;20045;-71
2023/09/03 02:45:03;;;;;;;64.93;30.38;;;;;;;16.02;100.00;102524.78;5201867;28;20124;-71
2023/09/03 02:47:34;;;;;;;57.47;29.08;;;;;;;15.96;100.00;102530.81;5201203;28;20028;-71
2023/09/03 02:50:05;;;;;;;52.75;23.42;;;;;;;15.90;100.00;102539.56;5202039;28;20021;-71
2023/09/03 02:52:35;;;;;;;68.95;21.58;;;;;;;15.85;100.00;102540.06;5202019;28;20514;-71
2023/09/03 02:55:06;;;;;;;41.25;21.33;;;;;;;15.78;100.00;102547.97;5203762;28;20026;-71
2023/09/03 02:57:37;;;;;;;43.63;22.60;;;;;;;15.74;100.00;102549.28;5204198;28;20125;-71
2023/09/03 03:00:08;;;;;;;53.20;25.33;;;;;;;15.68;100.00;102552.66;5205301;28;20101;-72
2023/09/03 03:02:39;;;;;;;50.15;26.02;;;;;;;15.65;100.00;102557.50;5204372;28;20073;-72
2023/09/03 03:05:09;;;;;;;62.88;28.08;;;;;;;15.60;100.00;102562.50;5205328;28;20151;-72
2023/09/03 03:07:41;;;;;;;57.78;28.08;;;;;;;15.59;100.00;102575.19;5204745;28;20103;-72
2023/09/03 03:10:12;;;;;;;68.07;33.10;;;;;;;15.61;100.00;102584.00;5205365;28;20022;-71
2023/09/03 03:12:44;;;;;;;72.10;34.30;;;;;;;15.64;100.00;102583.72;5205034;28;20033;-71
2023/09/03 03:15:15;;;;;;;72.30;34.45;;;;;;;15.65;100.00;102585.41;5205381;28;20776;-71
2023/09/03 03:17:45;;;;;;;79.43;33.60;;;;;;;15.63;100.00;102587.44;5204635;28;20296;-71
2023/09/03 03:20:16;;;;;;;71.05;34.30;;;;;;;15.64;100.00;102589.13;5203960;28;20029;-72
2023/09/03 03:22:46;;;;;;;62.88;30.38;;;;;;;15.62;100.00;102588.41;5205280;28;20013;-72
2023/09/03 03:25:17;;;;;;;68.22;33.25;;;;;;;15.60;100.00;102582.28;5204506;28;20104;-72
2023/09/03 03:27:48;;;;;;;68.85;34.38;;;;;;;15.59;100.00;102585.16;5204757;28;20091;-71
2023/09/03 03:30:18;;;;;;;67.45;32.85;;;;;;;15.55;100.00;102579.22;5204838;28;20475;-71
2023/09/03 03:32:49;;;;;;;63.75;30.30;;;;;;;15.53;100.00;102578.53;5205216;28;20065;-71
2023/09/03 03:35:19;;;;;;;66.22;31.05;;;;;;;15.47;100.00;102573.75;5204607;28;20033;-71
2023/09/03 03:37:50;;;;;;;68.38;32.90;;;;;;;15.45;100.00;102564.94;5204543;28;20031;-72
2023/09/03 03:40:20;;;;;;;78.65;32.90;;;;;;;15.38;100.00;102550.34;5204826;28;20021;-72
2023/09/03 03:42:52;;;;;;;67.90;33.67;;;;;;;15.36;100.00;102558.63;5204729;28;20033;-72
2023/09/03 03:45:22;;;;;;;64.57;30.40;;;;;;;15.34;100.00;102565.19;5204784;28;20475;-72
2023/09/03 03:47:54;;;;;;;56.67;28.50;;;;;;;15.28;100.00;102562.09;5204087;28;20066;-72
2023/09/03 03:50:24;;;;;;;58.90;28.90;;;;;;;15.27;100.00;102556.84;5194857;28;20029;-72
2023/09/03 03:52:55;;;;;;;63.63;32.97;;;;;;;15.28;100.00;102547.72;5185698;28;20038;-71
2023/09/03 03:55:25;;;;;;;76.03;28.15;;;;;;;15.22;100.00;102535.69;5184923;28;20102;-72
2023/09/03 03:57:56;;;;;;;52.28;25.10;;;;;;;15.14;100.00;102532.91;5189759;28;20037;-72
2023/09/03 04:00:27;;;;;;;57.03;27.10;;;;;;;15.10;100.00;102533.38;5204473;28;20021;-72
2023/09/03 04:02:59;;;;;;;66.80;30.65;;;;;;;15.12;100.00;102531.38;5191151;28;20032;-71
2023/09/03 04:05:29;;;;;;;66.45;32.65;;;;;;;15.12;100.00;102534.94;5203457;28;20037;-72
2023/09/03 04:08:00;;;;;;;66.28;31.30;;;;;;;15.10;100.00;102523.41;5203741;28;20479;-71
2023/09/03 04:10:30;;;;;;;60.53;28.60;;;;;;;15.09;100.00;102529.81;5204141;28;20370;-72
2023/09/03 04:13:01;;;;;;;58.50;28.42;;;;;;;15.07;100.00;102542.66;5203871;28;20032;-72
2023/09/03 04:15:31;;;;;;;66.72;31.20;;;;;;;15.01;100.00;102536.00;5204021;28;20486;-72
2023/09/03 04:18:02;;;;;;;59.55;24.50;;;;;;;14.96;100.00;102532.94;5203849;28;20033;-72
2023/09/03 04:20:32;;;;;;;280.58;26.33;;;;;;;14.86;100.00;102532.16;5204550;28;20379;-72
2023/09/03 04:23:03;;;;;;;99.00;16.15;;;;;;;14.76;100.00;102536.78;5204087;28;20040;-72
2023/09/03 04:25:34;;;;;;;44.67;21.30;;;;;;;14.69;100.00;102533.81;5203407;28;20025;-72
2023/09/03 04:28:05;;;;;;;61.88;29.63;;;;;;;14.68;100.00;102533.97;5203569;28;20509;-72
2023/09/03 04:30:37;;;;;;;53.28;27.02;;;;;;;14.68;100.00;102545.63;5204320;28;20104;-72
2023/09/03 04:33:07;;;;;;;48.42;23.85;;;;;;;14.68;100.00;102550.19;5202434;28;20026;-71
2023/09/03 04:35:39;;;;;;;42.00;22.45;;;;;;;14.65;100.00;102553.16;5185834;28;20072;-71
2023/09/03 04:38:09;;;;;;;48.72;25.17;;;;;;;14.60;100.00;102556.31;5196695;28;20049;-72
2023/09/03 04:40:44;;;;;;;57.25;29.38;;;;;;;14.59;100.00;102561.88;5203170;28;20022;-71
2023/09/03 04:43:14;;;;;;;52.05;26.17;;;;;;;14.58;100.00;102569.16;5188561;28;20041;-71
2023/09/03 04:45:51;;;;;;;52.45;24.42;;;;;;;14.58;100.00;102569.16;5195493;28;20029;-71
2023/09/03 04:48:22;;;;;;;56.63;27.40;;;;;;;14.57;100.00;102578.25;5185350;28;20315;-71
2023/09/03 04:50:53;;;;;;;53.50;27.35;;;;;;;14.59;100.00;102587.03;5196529;28;20539;-72
2023/09/03 04:53:24;;;;;;;57.30;27.27;;;;;;;14.59;100.00;102597.00;5188628;28;20037;-72
2023/09/03 04:55:54;;;;;;;49.17;26.60;;;;;;;14.60;100.00;102596.00;5198087;28;20471;-72
2023/09/03 04:58:25;;;;;;;57.67;27.33;;;;;;;14.60;100.00;102596.84;5203339;28;20025;-72
2023/09/03 05:00:55;;;;;;;55.63;25.05;;;;;;;14.54;100.00;102597.44;5202967;28;20032;-71
2023/09/03 05:03:26;;;;;;;50.75;24.48;;;;;;;14.51;100.00;102605.88;5191351;28;20107;-72
2023/09/03 05:05:56;;;;;;;44.80;22.00;;;;;;;14.44;100.00;102602.84;5190032;28;20104;-72
2023/09/03 05:08:27;;;;;;;50.10;24.13;;;;;;;14.41;100.00;102605.03;5202943;28;20443;-72
2023/09/03 05:10:57;;;;;;;49.55;24.50;;;;;;;14.39;100.00;102609.72;5202475;28;20022;-72
2023/09/03 05:13:28;;;;;;;45.72;24.10;;;;;;;14.39;100.00;102612.41;5202584;28;20033;-71
2023/09/03 05:15:58;;;;;;;45.65;23.45;;;;;;;14.44;100.00;102612.81;5202471;28;20474;-71
2023/09/03 05:18:29;;;;;;;49.38;25.55;;;;;;;14.48;100.00;102631.31;5202604;28;20033;-71
2023/09/03 05:21:08;;;;;;;53.58;28.15;;;;;;;14.54;100.00;102627.16;5202906;28;20495;-72
2023/09/03 05:23:40;;;;;;;59.85;29.45;;;;;;;14.60;100.00;102626.56;5202886;28;20036;-72
2023/09/03 05:26:10;;;;;;;57.10;29.02;;;;;;;14.65;100.00;102623.41;5202076;28;20029;-71
2023/09/03 05:28:41;;;;;;;73.03;35.13;;;;;;;14.73;100.00;102632.47;5202582;28;20029;-72
2023/09/03 05:31:11;;;;;;;84.32;38.28;;;;;;;14.81;100.00;102634.44;5203071;28;20386;-72
2023/09/03 05:33:42;;;;;;;75.95;34.30;;;;;;;14.89;100.00;102630.97;5202722;28;20021;-72
2023/09/03 05:36:12;;;;;;;70.97;36.65;;;;;;;14.95;100.00;102635.75;5202364;28;20543;-72
2023/09/03 05:38:43;;;;;;;73.60;35.80;;;;;;;15.02;100.00;102623.34;5202343;28;20037;-71
2023/09/03 05:41:14;;;;;;;67.80;34.08;;;;;;;15.07;100.00;102626.44;5202650;28;20498;-72
2023/09/03 05:43:44;;;;;;;62.53;32.00;;;;;;;15.11;100.00;102629.66;5202629;28;20026;-72
2023/09/03 05:46:15;;;;;;;76.28;31.85;;;;;;;15.16;100.00;102621.94;5200618;28;20391;-72
2023/09/03 05:48:50;;;;;;;155.25;30.38;;;;;;;15.19;100.00;102627.91;5202234;28;20368;-72
2023/09/03 05:51:20;;;;;;;44.85;21.27;;;;;;;15.22;100.00;102624.91;5202487;28;20044;-72
2023/09/03 05:53:51;;;;;;;54.17;27.20;;;;;;;15.24;100.00;102631.00;5202562;28;20494;-72
2023/09/03 05:56:21;;;;;;;65.55;31.95;;;;;;;15.27;100.00;102625.31;5201899;28;20033;-72
2023/09/03 05:58:52;;;;;;;71.70;33.70;;;;;;;15.37;100.00;102638.75;5187655;28;20114;-72
2023/09/03 06:01:22;;;;;;;71.70;35.08;;;;;;;15.47;100.00;102638.66;5202255;28;20029;-72
2023/09/03 06:03:53;;;;;;;64.70;33.75;;;;;;;15.57;100.00;102644.84;5202338;28;20091;-72
2023/09/03 06:06:23;;;;;;;48.03;26.85;;;;;;;15.65;100.00;102644.94;5191627;28;20379;-72
2023/09/03 06:08:54;;;;;;;60.40;30.55;;;;;;;15.73;100.00;102652.28;5201850;28;20495;-72
2023/09/03 06:11:24;;;;;;;63.15;32.22;;;;;;;15.84;100.00;102651.19;5202599;28;20108;-72
2023/09/03 06:13:55;;;;;;;67.65;33.42;;;;;;;15.97;100.00;102665.16;5201790;28;20474;-72
2023/09/03 06:16:25;;;;;;;49.47;26.05;;;;;;;16.09;100.00;102668.47;5202160;28;20418;-72
2023/09/03 06:18:56;;;;;;;54.03;29.63;;;;;;;16.26;100.00;102670.25;5202618;28;20018;-72
2023/09/03 06:21:26;;;;;;;65.45;35.13;;;;;;;16.40;100.00;102668.81;5202701;28;20050;-72
2023/09/03 06:23:57;;;;;;;63.75;35.42;;;;;;;16.56;100.00;102669.75;5202296;28;20036;-72
2023/09/03 06:26:27;;;;;;;64.32;37.40;;;;;;;16.80;100.00;102674.47;5201520;28;20124;-72
2023/09/03 06:28:58;;;;;;;64.30;35.00;;;;;;;17.01;100.00;102684.88;5202260;28;20021;-72
2023/09/03 06:31:29;;;;;;;58.72;33.40;;;;;;;17.26;100.00;102684.97;5206316;28;20036;-72
2023/09/03 06:33:59;;;;;;;59.33;32.67;;;;;;;17.67;100.00;102679.59;5204957;28;20534;-72
2023/09/03 06:36:30;;;;;;;53.28;31.67;;;;;;;18.07;100.00;102676.06;5191970;28;20018;-73
2023/09/03 06:39:00;;;;;;;49.95;29.25;;;;;;;18.49;100.00;102681.25;5187690;28;20034;-73
2023/09/03 06:41:31;;;;;;;48.13;28.27;;;;;;;18.88;100.00;102678.59;5190285;28;20017;-73
2023/09/03 06:44:01;;;;;;;39.63;25.20;;;;;;;19.14;100.00;102681.00;5188679;28;20491;-72
2023/09/03 06:46:32;;;;;;;39.55;24.75;;;;;;;19.45;100.00;102684.75;5192525;28;20037;-72
2023/09/03 06:49:02;;;;;;;41.13;25.77;;;;;;;19.75;100.00;102693.91;5197099;28;20026;-72
2023/09/03 06:51:33;;;;;;;39.00;24.58;;;;;;;19.96;100.00;102676.88;5191480;28;20048;-72
2023/09/03 06:54:03;;;;;;;35.78;24.17;;;;;;;20.11;100.00;102692.22;5188840;28;20030;-73
2023/09/03 06:56:34;;;;;;;37.22;24.80;;;;;;;20.26;100.00;102694.97;5191121;28;20046;-73
2023/09/03 06:59:04;;;;;;;37.67;23.90;;;;;;;20.42;100.00;102694.78;5200656;28;20021;-73
2023/09/03 07:01:35;;;;;;;35.88;23.55;;;;;;;20.65;100.00;102692.03;5206068;28;20095;-73
2023/09/03 07:04:05;;;;;;;36.45;24.77;;;;;;;20.97;100.00;102705.44;5206001;28;20025;-73
2023/09/03 07:06:36;;;;;;;38.05;23.50;;;;;;;21.26;100.00;102702.66;5195751;28;20027;-73
2023/09/03 07:09:06;;;;;;;35.90;22.88;;;;;;;21.55;100.00;102695.47;5206535;28;20026;-73
2023/09/03 07:11:37;;;;;;;32.88;21.88;;;;;;;21.69;100.00;102703.59;5206791;28;20112;-73
2023/09/03 07:14:07;;;;;;;33.13;23.00;;;;;;;21.79;100.00;102707.84;5212259;28;20029;-73
2023/09/03 07:16:38;;;;;;;33.28;23.00;;;;;;;21.83;100.00;102715.47;5205136;28;20029;-73
2023/09/03 07:19:08;;;;;;;30.70;22.65;;;;;;;22.07;100.00;102716.94;5199070;28;20092;-73
2023/09/03 07:21:39;;;;;;;36.25;23.05;;;;;;;22.21;100.00;102721.50;5186215;28;20030;-73
2023/09/03 07:24:10;;;;;;;32.65;22.00;;;;;;;22.32;100.00;102727.47;5185559;28;20494;-73
2023/09/03 07:26:41;;;;;;;34.47;22.17;;;;;;;22.52;100.00;102725.72;5185267;28;20447;-73
2023/09/03 07:29:13;;;;;;;33.38;21.45;;;;;;;22.80;100.00;102728.44;5185040;28;20029;-73
2023/09/03 07:31:44;;;;;;;31.15;22.00;;;;;;;22.99;100.00;102725.00;5186108;28;20087;-72
2023/09/03 07:34:14;;;;;;;32.38;22.52;;;;;;;23.07;100.00;102729.44;5185443;28;20317;-72
2023/09/03 07:36:45;;;;;;;31.52;21.73;;;;;;;23.15;100.00;102715.56;5184072;28;20070;-73
2023/09/03 07:39:15;;;;;;;34.20;23.00;;;;;;;23.14;100.00;102733.03;5184913;28;20649;-72
2023/09/03 07:41:46;;;;;;;37.20;22.60;;;;;;;23.28;100.00;102728.44;5184120;28;20014;-73
2023/09/03 07:44:16;;;;;;;34.83;21.48;;;;;;;23.43;100.00;102731.03;5184978;28;20025;-73
2023/09/03 07:46:47;;;;;;;34.15;23.10;;;;;;;23.47;100.00;102735.06;5183478;28;20523;-73
2023/09/03 07:49:17;;;;;;;34.60;22.75;;;;;;;23.51;100.00;102731.69;5184112;28;20021;-73
2023/09/03 07:51:48;;;;;;;38.25;25.02;;;;;;;23.53;100.00;102736.94;5184625;28;20103;-73
2023/09/03 07:54:18;;;;;;;39.78;24.88;;;;;;;23.60;100.00;102737.00;5184417;28;20030;-73
2023/09/03 07:56:49;;;;;;;35.25;23.05;;;;;;;23.84;100.00;102741.88;5192923;28;20449;-73
2023/09/03 07:59:19;;;;;;;39.72;24.20;;;;;;;24.14;100.00;102747.81;5204613;28;20029;-73
2023/09/03 08:01:50;;;;;;;38.20;24.30;;;;;;;24.38;100.00;102740.03;5205113;28;20021;-73
2023/09/03 08:04:22;;;;;;;44.25;26.25;;;;;;;24.63;100.00;102745.69;5204163;28;20039;-73
2023/09/03 08:06:52;;;;;;;40.65;25.67;;;;;;;24.70;100.00;102743.78;5204719;28;20442;-73
2023/09/03 08:09:23;;;;;;;40.13;25.92;;;;;;;24.90;100.00;102743.72;5204283;28;20064;-73
2023/09/03 08:11:54;;;;;;;43.42;27.70;;;;;;;24.97;100.00;102742.66;5204583;28;20475;-73
2023/09/03 08:14:24;;;;;;;39.72;26.92;;;;;;;25.04;100.00;102746.19;5204679;28;20033;-73
2023/09/03 08:16:55;;;;;;;43.13;27.85;;;;;;;25.15;100.00;102746.63;5203945;28;20043;-72
2023/09/03 08:19:25;;;;;;;44.20;27.52;;;;;;;25.16;100.00;102742.84;5204730;28;20021;-73
2023/09/03 08:21:55;;;;;;;44.58;27.90;;;;;;;25.21;100.00;102754.84;5202473;28;20096;-73
2023/09/03 08:24:27;;;;;;;43.83;27.50;;;;;;;25.31;100.00;102741.47;5183797;28;20438;-73
2023/09/03 08:26:58;;;;;;;41.72;26.05;;;;;;;25.47;100.00;102737.38;5184321;28;20430;-73
2023/09/03 08:29:29;;;;;;;43.38;27.90;;;;;;;25.47;100.00;102736.53;5184385;28;20037;-73
2023/09/03 08:31:59;;;;;;;40.85;27.35;;;;;;;25.56;100.00;102736.06;5187780;28;20038;-72
2023/09/03 08:34:30;;;;;;;48.22;28.63;;;;;;;25.49;100.00;102738.00;5186296;28;20419;-73
2023/09/03 08:37:00;;;;;;;44.60;27.50;;;;;;;25.40;100.00;102733.81;5187499;28;20029;-73
2023/09/03 08:39:31;;;;;;;38.92;26.48;;;;;;;25.67;100.00;102748.25;5187075;28;20028;-73
2023/09/03 08:42:02;;;;;;;41.08;26.52;;;;;;;26.05;100.00;102739.09;5192764;28;20490;-73
2023/09/03 08:44:45;;;;;;;42.05;26.25;;;;;;;26.20;100.00;102741.53;5191061;28;20144;-72
2023/09/03 08:47:17;;;;;;;42.78;26.05;;;;;;;26.21;100.00;102740.47;5185897;28;20017;-73
2023/09/03 08:49:48;;;;;;;39.30;25.60;;;;;;;26.27;100.00;102742.31;5189049;28;20021;-73
2023/09/03 08:52:19;;;;;;;42.85;26.80;;;;;;;26.47;100.00;102740.25;5185440;28;20088;-73
2023/09/03 08:54:50;;;;;;;45.50;26.10;;;;;;;26.42;100.00;102739.22;5192523;28;20106;-73
2023/09/03 08:57:26;;;;;;;43.03;26.45;;;;;;;26.27;100.00;102729.41;5191380;28;20096;-73
2023/09/03 08:59:56;;;;;;;39.85;26.13;;;;;;;26.28;100.00;102736.59;5192325;28;20025;-73
2023/09/03 09:02:28;;;;;;;37.03;22.48;;;;;;;26.29;100.00;102741.00;5203611;28;20033;-73
2023/09/03 09:05:06;;;;;;;36.65;23.88;;;;;;;26.33;100.00;102739.50;5195643;28;20104;-73
2023/09/03 09:07:37;;;;;;;38.22;24.85;;;;;;;26.34;100.00;102743.94;5200966;28;20215;-73
2023/09/03 09:10:10;;;;;;;40.38;24.40;;;;;;;26.45;100.00;102736.88;5203464;28;20111;-73
2023/09/03 09:12:48;;;;;;;37.30;22.35;;;;;;;26.57;100.00;102736.97;5203251;28;20087;-73
2023/09/03 09:15:19;;;;;;;34.33;22.58;;;;;;;26.45;100.00;102738.78;5202939;28;20204;-73
2023/09/03 09:17:50;;;;;;;34.97;22.63;;;;;;;26.44;100.00;102735.19;5202908;28;20479;-73
2023/09/03 09:20:20;;;;;;;33.72;20.23;;;;;;;26.41;100.00;102741.13;5202218;28;20056;-73
2023/09/03 09:22:51;;;;;;;29.23;18.55;;;;;;;26.32;100.00;102739.75;5203483;28;20395;-73
2023/09/03 09:25:23;;;;;;;27.70;17.67;;;;;;;26.35;100.00;102736.50;5202015;28;20077;-73
2023/09/03 09:27:55;;;;;;;25.70;16.48;;;;;;;26.25;100.00;102744.44;5202306;28;20068;-73
2023/09/03 09:30:26;;;;;;;30.25;16.10;;;;;;;26.44;100.00;102737.94;5203200;28;20048;-73
2023/09/03 09:33:03;;;;;;;25.70;15.68;;;;;;;26.53;100.00;102750.34;5203188;28;20056;-73
2023/09/03 09:35:34;;;;;;;23.23;14.35;;;;;;;26.39;100.00;102758.94;5190656;28;20091;-73
2023/09/03 09:38:07;;;;;;;22.23;14.98;;;;;;;26.63;100.00;102757.25;5202254;28;20462;-73
2023/09/03 09:40:37;;;;;;;20.75;13.60;;;;;;;26.89;100.00;102751.44;5203161;28;20479;-73
2023/09/03 09:43:09;;;;;;;22.70;13.80;;;;;;;27.03;100.00;102752.97;5203078;28;20108;-73
2023/09/03 09:45:46;;;;;;;22.15;15.30;;;;;;;26.98;100.00;102750.06;5202841;28;20068;-73
2023/09/03 09:48:17;;;;;;;23.92;14.27;;;;;;;27.10;100.00;102752.91;5202750;28;20143;-73
2023/09/03 09:50:48;;;;;;;27.38;16.25;;;;;;;26.96;100.00;102746.72;5202592;28;20163;-73
2023/09/03 09:53:24;;;;;;;21.10;13.32;;;;;;;27.20;100.00;102739.44;5202843;28;20482;-73
2023/09/03 09:55:59;;;;;;;22.30;13.23;;;;;;;27.28;100.00;102743.78;5202051;28;20479;-73
2023/09/03 09:58:36;;;;;;;19.63;13.07;;;;;;;27.57;100.00;102737.44;5202570;28;20062;-74
2023/09/03 10:01:08;;;;;;;23.42;13.10;;;;;;;27.73;100.00;102743.41;5202242;28;20091;-73
2023/09/03 10:03:47;;;;;;;21.00;13.85;;;;;;;27.96;100.00;102746.19;5202247;28;20506;-74
2023/09/03 10:06:20;;;;;;;24.70;12.90;;;;;;;28.13;100.00;102747.19;5202285;28;20475;-74
2023/09/03 10:08:52;;;;;;;17.85;11.15;;;;;;;28.20;100.00;102741.53;5202119;28;20029;-74
2023/09/03 10:11:22;;;;;;;14.05;9.18;;;;;;;28.12;100.00;102734.47;5202394;28;20108;-73
2023/09/03 10:13:55;;;;;;;17.10;10.18;;;;;;;27.98;100.00;102744.06;5202748;28;20367;-73
2023/09/03 10:16:25;;;;;;;18.52;9.93;;;;;;;27.83;100.00;102735.38;5202450;28;20056;-73
2023/09/03 10:19:01;;;;;;;15.20;8.95;;;;;;;27.79;100.00;102728.66;5201794;28;20025;-74
2023/09/03 10:21:33;;;;;;;15.30;9.75;;;;;;;27.71;100.00;102728.97;5202891;28;20356;-73
2023/09/03 10:24:05;;;;;;;17.27;10.45;;;;;;;27.57;100.00;102728.34;5202882;28;20037;-73
2023/09/03 10:26:45;;;;;;;11.98;8.55;;;;;;;27.40;100.00;102719.88;5201818;28;20033;-73
2023/09/03 10:29:19;;;;;;;12.75;7.18;;;;;;;27.36;100.00;102718.66;5202649;28;20461;-73
2023/09/03 10:31:52;;;;;;;11.57;7.47;;;;;;;27.35;100.00;102711.47;5202571;28;20033;-74
2023/09/03 10:34:22;;;;;;;8.82;6.38;;;;;;;27.33;100.00;102719.97;5200921;28;20131;-73
2023/09/03 10:37:10;;;;;;;12.20;7.63;;;;;;;27.34;100.00;102720.81;5199831;28;20029;-74
2023/09/03 10:39:43;;;;;;;12.10;8.00;;;;;;;27.29;100.00;102728.94;5185407;28;20460;-73
2023/09/03 10:42:14;;;;;;;10.77;7.50;;;;;;;27.30;100.00;102720.44;5197812;28;20025;-74
2023/09/03 10:44:51;;;;;;;10.60;6.93;;;;;;;27.30;100.00;102711.31;5201559;28;20040;-74
2023/09/03 10:47:22;;;;;;;11.85;7.47;;;;;;;27.27;100.00;102720.06;5195352;28;20033;-74
2023/09/03 10:49:54;;;;;;;10.85;7.03;;;;;;;27.13;100.00;102721.31;5201443;28;20129;-73
2023/09/03 10:52:31;;;;;;;14.05;6.75;;;;;;;27.09;100.00;102729.19;5198131;28;20017;-74
2023/09/03 10:55:16;;;;;;;12.07;7.00;;;;;;;27.01;100.00;102716.56;5198794;28;20099;-74
2023/09/03 10:57:48;;;;;;;;;;;;;;;26.85;100.00;102720.75;5187062;28;20569;-74
2023/09/03 11:00:21;;;;;;;11.60;7.13;;;;;;;26.79;100.00;102723.59;5194285;28;19909;-74
2023/09/03 11:03:18;;;;;;;10.70;6.07;;;;;;;26.78;100.00;102721.94;5201205;28;20087;-74
2023/09/03 11:06:15;;;;;;;12.15;6.88;;;;;;;26.79;100.00;102718.09;5189142;28;20120;-73
2023/09/03 11:08:47;;;;;;;10.07;6.55;;;;;;;26.73;100.00;102714.34;5196683;28;20037;-74
2023/09/03 11:11:19;;;;;;;9.82;5.82;;;;;;;26.65;100.00;102728.41;5201361;28;20364;-74
2023/09/03 11:13:51;;;;;;;7.95;5.20;;;;;;;26.66;100.00;102721.00;5199171;28;20040;-73
2023/09/03 11:16:27;;;;;;;10.00;5.80;;;;;;;26.78;100.00;102722.75;5197395;28;20045;-73
2023/09/03 11:18:58;;;;;;;8.52;5.55;;;;;;;27.04;100.00;102729.03;5194885;28;20088;-74
2023/09/03 11:21:29;;;;;;;9.20;5.30;;;;;;;27.17;100.00;102725.31;5200563;28;20425;-74
2023/09/03 11:24:04;;;;;;;7.25;4.68;;;;;;;27.31;100.00;102732.28;5198690;28;20084;-74